Time;durP1;ratioP1;P1;durP2;ratioP2;P2;SDS_P1;SDS_P2;PMS_P1;PMS_P2;Temp;Humidity;BMP_temperature;BMP_pressure;BME280_temperature;BME280_humidity;BME280_pressure;Samples;Min_cycle;Max_cycle;Signal;HPM_P1;HPM_P2
2022/03/31 00:00:17;;;;;;;12.30;8.70;;;;;;;2.15;78.81;97934.03;1761511;81;20963;-41
2022/03/31 00:02:44;;;;;;;11.88;8.88;;;;;;;2.21;78.69;97932.45;1761321;80;20971;-43
2022/03/31 00:05:10;;;;;;;13.43;8.77;;;;;;;2.15;79.38;97924.95;1761717;81;20991;-41
2022/03/31 00:07:51;;;;;;;15.03;9.28;;;;;;;2.10;79.27;97930.78;1761434;81;21022;-43
2022/03/31 00:10:26;;;;;;;13.70;8.50;;;;;;;2.11;79.73;97931.16;1761657;81;21477;-41
2022/03/31 00:12:54;;;;;;;12.60;9.10;;;;;;;2.13;78.65;97928.50;1744410;81;21019;-43
2022/03/31 00:15:22;;;;;;;13.43;8.85;;;;;;;2.02;79.20;97923.77;1761400;81;21066;-42
2022/03/31 00:17:48;;;;;;;12.80;8.53;;;;;;;2.04;78.84;97923.28;1761626;81;21022;-43
2022/03/31 00:20:14;;;;;;;10.63;8.25;;;;;;;2.04;80.31;97921.98;1761524;81;20983;-42
2022/03/31 00:22:40;;;;;;;14.87;8.60;;;;;;;2.09;79.48;97925.20;1761479;81;21480;-42
2022/03/31 00:25:07;;;;;;;13.68;8.90;;;;;;;2.08;78.24;97924.83;1761906;81;21012;-40
2022/03/31 00:27:35;;;;;;;11.65;9.13;;;;;;;2.03;78.99;97921.58;1761564;81;21461;-41
2022/03/31 00:30:03;;;;;;;13.62;8.88;;;;;;;1.98;79.69;97917.04;1761598;81;20984;-43
2022/03/31 00:32:28;;;;;;;10.58;7.87;;;;;;;1.98;79.25;97913.15;1761453;81;20987;-42
2022/03/31 00:34:54;;;;;;;14.25;9.05;;;;;;;1.88;79.69;97904.93;1761387;81;20987;-42
2022/03/31 00:37:20;;;;;;;14.47;9.35;;;;;;;1.88;80.18;97908.36;1761493;81;20977;-42
2022/03/31 00:39:47;;;;;;;14.87;8.48;;;;;;;1.86;79.48;97908.88;1761491;80;21516;-40
2022/03/31 00:42:13;;;;;;;14.63;9.70;;;;;;;1.82;80.14;97906.03;1761675;80;20952;-42
2022/03/31 00:44:38;;;;;;;13.75;10.00;;;;;;;1.83;80.92;97904.28;1761420;81;20984;-42
2022/03/31 00:47:04;;;;;;;17.65;9.33;;;;;;;1.93;79.60;97904.29;1760804;80;21136;-42
2022/03/31 00:49:32;;;;;;;12.55;9.95;;;;;;;1.84;79.75;97902.09;1748028;81;20992;-40
2022/03/31 00:51:57;;;;;;;;;;;;;;;1.78;80.40;97908.81;1750633;81;20940;-43
2022/03/31 00:54:27;;;;;;;13.90;8.45;;;;;;;1.78;79.67;97901.86;1748095;81;20129;-42
2022/03/31 00:56:55;;;;;;;13.55;9.20;;;;;;;1.71;80.05;97904.32;1748047;81;21031;-41
2022/03/31 00:59:21;;;;;;;14.18;8.63;;;;;;;1.61;80.54;97906.92;1748067;82;21031;-41
2022/03/31 01:01:49;;;;;;;15.03;9.35;;;;;;;1.60;80.34;97911.70;1748044;81;21035;-40
2022/03/31 01:04:15;;;;;;;17.42;9.95;;;;;;;1.68;79.56;97906.60;1748310;81;21561;-40
2022/03/31 01:06:44;;;;;;;14.70;10.10;;;;;;;1.63;79.71;97907.70;1748296;81;20952;-41
2022/03/31 01:09:12;;;;;;;15.32;9.95;;;;;;;1.63;79.90;97906.41;1748029;81;21023;-43
2022/03/31 01:11:39;;;;;;;14.00;10.28;;;;;;;1.59;81.46;97899.20;1748081;81;20984;-40
2022/03/31 01:14:07;;;;;;;11.90;8.93;;;;;;;1.67;80.12;97900.18;1748169;81;20968;-42
2022/03/31 01:16:33;;;;;;;;;;;;;;;1.72;79.52;97906.02;1750761;81;21019;-41
2022/03/31 01:19:05;;;;;;;13.55;10.28;;;;;;;1.68;79.61;97901.88;1748068;81;20101;-42
2022/03/31 01:21:35;;;;;;;12.50;8.73;;;;;;;1.50;80.48;97902.18;1747996;82;21008;-42
2022/03/31 01:24:01;;;;;;;11.63;8.30;;;;;;;1.61;80.93;97897.86;1747786;82;20992;-41
2022/03/31 01:26:26;;;;;;;12.13;8.80;;;;;;;1.63;80.38;97898.17;1748079;81;20960;-40
2022/03/31 01:28:52;;;;;;;14.98;8.83;;;;;;;1.56;80.41;97904.97;1747738;81;20980;-42
2022/03/31 01:31:18;;;;;;;10.70;8.58;;;;;;;1.55;80.42;97900.25;1748040;81;21403;-41
2022/03/31 01:33:44;;;;;;;13.43;8.63;;;;;;;1.49;80.61;97900.48;1748137;81;21031;-42
2022/03/31 01:36:10;;;;;;;12.93;9.23;;;;;;;1.51;80.29;97901.26;1748295;81;21473;-42
2022/03/31 01:38:36;;;;;;;14.68;10.30;;;;;;;1.49;79.99;97906.53;1748051;81;20984;-42
2022/03/31 01:41:02;;;;;;;13.15;9.48;;;;;;;1.49;80.66;97910.41;1748128;81;21008;-41
2022/03/31 01:43:27;;;;;;;15.68;10.38;;;;;;;1.48;79.96;97904.83;1747935;82;20960;-41
2022/03/31 01:45:54;;;;;;;12.95;9.93;;;;;;;1.51;79.86;97906.44;1748006;81;21031;-43
2022/03/31 01:48:21;;;;;;;13.78;9.78;;;;;;;1.52;80.08;97902.49;1748089;80;21612;-42
2022/03/31 01:50:47;;;;;;;13.45;9.25;;;;;;;1.52;79.57;97911.56;1748026;81;21003;-43
2022/03/31 01:53:18;;;;;;;12.50;9.10;;;;;;;1.54;79.67;97908.91;1748033;81;20956;-43
2022/03/31 01:55:44;;;;;;;17.25;10.32;;;;;;;1.51;80.68;97919.39;1747995;81;21024;-43
2022/03/31 01:58:10;;;;;;;14.25;9.48;;;;;;;1.48;81.35;97912.60;1747988;81;21035;-43
2022/03/31 02:00:36;;;;;;;14.53;10.00;;;;;;;1.55;81.01;97917.09;1748106;81;21446;-41
2022/03/31 02:03:03;;;;;;;13.72;9.58;;;;;;;1.59;80.62;97904.39;1747980;82;20992;-40
2022/03/31 02:05:28;;;;;;;15.25;10.10;;;;;;;1.61;80.18;97906.92;1748051;82;20987;-40
2022/03/31 02:07:57;;;;;;;15.23;10.23;;;;;;;1.63;80.56;97907.23;1747982;81;20987;-43
2022/03/31 02:10:25;;;;;;;15.43;9.70;;;;;;;1.65;80.32;97902.00;1737435;82;20991;-41
2022/03/31 02:12:52;;;;;;;14.68;9.93;;;;;;;1.67;79.58;97904.06;1747949;81;21010;-42
2022/03/31 02:15:20;;;;;;;17.12;10.18;;;;;;;1.61;80.02;97903.88;1748232;82;21027;-41
2022/03/31 02:17:45;;;;;;;;;;;;;;;1.62;79.28;97906.00;1750513;81;20972;-43
2022/03/31 02:20:11;;;;;;;15.13;9.73;;;;;;;1.50;81.17;97905.61;1747981;82;20113;-41
2022/03/31 02:22:37;;;;;;;16.40;9.95;;;;;;;1.59;79.82;97903.56;1747971;81;20988;-43
2022/03/31 02:25:05;;;;;;;16.47;9.70;;;;;;;1.57;79.02;97913.14;1748219;81;20968;-43
2022/03/31 02:27:31;;;;;;;12.78;9.85;;;;;;;1.50;79.24;97917.27;1747960;81;21109;-42
2022/03/31 02:29:57;;;;;;;14.28;9.18;;;;;;;1.49;79.71;97913.00;1748100;81;21525;-43
2022/03/31 02:32:23;;;;;;;14.07;9.40;;;;;;;1.45;79.88;97905.41;1748011;82;20996;-42
2022/03/31 02:34:48;;;;;;;15.48;9.68;;;;;;;1.41;80.53;97899.51;1747975;81;20957;-42
2022/03/31 02:37:17;;;;;;;11.28;8.65;;;;;;;1.45;80.06;97903.65;1748019;81;20980;-41
2022/03/31 02:39:45;;;;;;;17.10;9.65;;;;;;;1.47;80.07;97896.66;1747834;81;20959;-41
2022/03/31 02:43:27;;;;;;;13.80;10.25;;;;;;;1.56;80.49;97902.38;1818448;79;22979;-43
2022/03/31 02:45:53;;;;;;;11.95;9.23;;;;;;;1.60;79.82;97894.86;1792837;80;21046;-43
2022/03/31 02:48:18;;;;;;;15.70;9.88;;;;;;;1.64;80.30;97889.97;1793041;80;21464;-41
2022/03/31 02:50:44;;;;;;;13.95;9.10;;;;;;;1.57;79.58;97892.42;1793062;80;21034;-41
2022/03/31 02:55:55;;;;;;;14.53;8.73;;;;;;;1.66;78.99;97903.70;1793086;80;21026;-43
2022/03/31 02:58:21;;;;;;;13.05;9.50;;;;;;;1.56;79.16;97903.21;1792931;80;21046;-42
2022/03/31 03:03:35;;;;;;;10.48;8.25;;;;;;;1.52;79.87;97902.95;1822461;79;22974;-41
2022/03/31 03:06:01;;;;;;;14.10;9.00;;;;;;;1.42;80.06;97904.22;1793198;80;21085;-41
2022/03/31 03:08:27;;;;;;;14.43;9.53;;;;;;;1.43;78.91;97909.34;1793194;80;21054;-41
2022/03/31 03:10:55;;;;;;;13.88;8.68;;;;;;;1.47;79.04;97910.90;1793355;79;21101;-41
2022/03/31 03:13:20;;;;;;;11.53;8.80;;;;;;;1.40;79.31;97906.91;1794904;80;21464;-41
2022/03/31 03:15:48;;;;;;;14.30;9.18;;;;;;;1.31;80.03;97904.66;1794742;80;20982;-42
2022/03/31 03:18:18;;;;;;;12.05;9.10;;;;;;;1.29;79.44;97903.88;1794639;80;20983;-42
2022/03/31 03:20:43;;;;;;;14.85;9.13;;;;;;;1.33;79.97;97896.40;1794366;80;20971;-41
2022/03/31 03:23:08;;;;;;;15.83;8.95;;;;;;;1.39;80.48;97897.89;1794648;80;20943;-41
2022/03/31 03:25:34;;;;;;;12.95;7.80;;;;;;;1.43;80.58;97898.98;1794686;80;21463;-42
2022/03/31 03:28:00;;;;;;;12.63;8.88;;;;;;;1.48;79.39;97895.77;1794634;80;20979;-40
2022/03/31 03:30:26;;;;;;;15.30;9.03;;;;;;;1.42;79.19;97901.20;1794934;80;21010;-42
2022/03/31 03:32:51;;;;;;;18.37;8.48;;;;;;;1.34;79.84;97898.06;1794579;80;21037;-43
2022/03/31 03:35:17;;;;;;;16.40;9.60;;;;;;;1.36;79.78;97894.95;1794667;80;20967;-43
2022/03/31 03:37:44;;;;;;;14.53;9.38;;;;;;;1.38;80.10;97897.03;1794756;80;20985;-40
2022/03/31 03:40:13;;;;;;;11.57;9.25;;;;;;;1.41;80.09;97895.63;1794601;80;21021;-42
2022/03/31 03:42:39;;;;;;;13.22;8.95;;;;;;;1.45;79.86;97891.99;1794594;80;21037;-41
2022/03/31 03:45:09;;;;;;;13.68;8.83;;;;;;;1.43;79.17;97888.63;1794721;80;21030;-41
2022/03/31 03:47:34;;;;;;;11.80;8.63;;;;;;;1.48;79.18;97893.17;1794599;80;21034;-44
2022/03/31 03:50:00;;;;;;;14.43;9.38;;;;;;;1.51;79.64;97899.96;1794605;79;21037;-42
2022/03/31 03:52:26;;;;;;;13.60;9.85;;;;;;;1.53;79.73;97895.13;1794580;80;21037;-41
2022/03/31 03:54:52;;;;;;;13.25;8.98;;;;;;;1.56;79.05;97899.79;1794579;80;21030;-42
2022/03/31 03:57:18;;;;;;;11.93;8.85;;;;;;;1.62;79.36;97904.70;1794600;80;20989;-39
2022/03/31 03:59:45;;;;;;;16.67;9.33;;;;;;;1.63;78.73;97907.70;1794932;80;21476;-41
2022/03/31 04:02:10;;;;;;;17.25;10.23;;;;;;;1.57;78.46;97911.85;1791090;80;21011;-42
2022/03/31 04:04:36;;;;;;;16.37;9.55;;;;;;;1.49;78.88;97910.41;1783784;80;20987;-40
2022/03/31 04:07:03;;;;;;;15.18;9.43;;;;;;;1.51;78.59;97908.60;1783839;80;21022;-41
2022/03/31 04:09:29;;;;;;;19.98;10.45;;;;;;;1.52;79.02;97912.86;1783221;80;21202;-42
2022/03/31 04:11:55;;;;;;;13.25;9.68;;;;;;;1.47;78.15;97916.55;1782591;80;20998;-43
2022/03/31 04:14:21;;;;;;;14.43;9.58;;;;;;;1.43;78.81;97917.58;1782194;80;21015;-42
2022/03/31 04:16:48;;;;;;;12.33;8.40;;;;;;;1.43;79.19;97914.53;1782046;80;21570;-42
2022/03/31 04:19:14;;;;;;;10.63;7.65;;;;;;;1.44;79.25;97916.69;1783516;80;21046;-42
2022/03/31 04:21:40;;;;;;;12.35;8.38;;;;;;;1.44;79.10;97915.39;1783362;80;20963;-40
2022/03/31 04:24:07;;;;;;;10.48;7.70;;;;;;;1.37;78.28;97917.84;1783187;80;21637;-39
2022/03/31 04:26:34;;;;;;;12.75;8.00;;;;;;;1.25;78.80;97920.45;1783595;80;20989;-41
2022/03/31 04:29:01;;;;;;;14.20;9.27;;;;;;;1.30;78.24;97922.41;1783439;80;20998;-43
2022/03/31 04:31:28;;;;;;;10.80;8.35;;;;;;;1.20;79.01;97937.48;1783346;80;21463;-40
2022/03/31 04:33:55;;;;;;;16.55;8.88;;;;;;;1.21;78.90;97937.86;1783361;80;20991;-42
2022/03/31 04:36:20;;;;;;;14.13;9.53;;;;;;;1.22;79.24;97937.39;1783428;80;20990;-43
2022/03/31 04:38:46;;;;;;;10.43;8.05;;;;;;;1.26;79.09;97935.09;1783260;80;21115;-42
2022/03/31 04:41:13;;;;;;;12.65;9.48;;;;;;;1.31;79.20;97932.72;1783270;80;20987;-40
2022/03/31 04:43:39;;;;;;;13.85;8.90;;;;;;;1.34;78.65;97942.09;1783267;80;20994;-41
2022/03/31 04:46:05;;;;;;;11.12;8.10;;;;;;;1.37;79.10;97945.88;1783277;80;20983;-41
2022/03/31 04:48:34;;;;;;;9.88;7.08;;;;;;;1.41;78.86;97942.70;1783163;80;21030;-42
2022/03/31 04:50:59;;;;;;;10.95;8.20;;;;;;;1.42;78.44;97943.08;1782920;80;21115;-42
2022/03/31 04:53:24;;;;;;;11.43;8.08;;;;;;;1.38;78.43;97944.95;1783256;80;21468;-41
2022/03/31 04:55:50;;;;;;;11.00;7.67;;;;;;;1.38;78.07;97938.47;1783177;80;21006;-43
2022/03/31 04:58:16;;;;;;;13.78;9.50;;;;;;;1.34;78.83;97940.34;1783186;80;20990;-41
2022/03/31 05:00:42;;;;;;;14.60;9.13;;;;;;;1.33;79.08;97941.27;1783180;80;20995;-41
2022/03/31 05:03:08;;;;;;;10.78;8.18;;;;;;;1.39;78.93;97944.06;1786376;80;20983;-40
2022/03/31 05:05:34;;;;;;;15.05;8.15;;;;;;;1.40;78.85;97948.78;1788652;80;21033;-41
2022/03/31 05:08:00;;;;;;;13.45;8.53;;;;;;;1.35;78.86;97948.98;1786063;80;21429;-41
2022/03/31 05:10:26;;;;;;;13.40;8.85;;;;;;;1.39;78.77;97946.65;1788690;80;20982;-42
2022/03/31 05:12:51;;;;;;;11.88;8.03;;;;;;;1.35;79.50;97956.75;1788901;80;21046;-41
2022/03/31 05:15:17;;;;;;;14.07;8.48;;;;;;;1.41;79.10;97956.95;1788709;80;20999;-42
2022/03/31 05:17:43;;;;;;;10.90;8.20;;;;;;;1.36;78.53;97958.42;1788821;80;20998;-40
2022/03/31 05:20:12;;;;;;;11.38;7.72;;;;;;;1.38;78.27;97966.13;1788739;80;21042;-42
2022/03/31 05:22:39;;;;;;;11.68;7.92;;;;;;;1.32;78.32;97962.04;1788733;80;21042;-40
2022/03/31 05:25:08;;;;;;;12.30;8.48;;;;;;;1.33;78.08;97968.92;1788688;80;21033;-40
2022/03/31 05:27:47;;;;;;;13.60;8.10;;;;;;;1.36;79.24;97971.37;1788693;80;20995;-43
2022/03/31 05:30:18;;;;;;;12.93;7.70;;;;;;;1.38;78.91;97976.03;1787565;80;21456;-42
2022/03/31 05:32:44;;;;;;;11.78;7.53;;;;;;;1.35;78.42;97978.77;1788692;80;21025;-45
2022/03/31 05:35:11;;;;;;;13.53;8.35;;;;;;;1.38;78.00;97979.08;1788757;80;21107;-43
2022/03/31 05:37:37;;;;;;;12.05;8.13;;;;;;;1.41;78.61;97979.81;1788864;80;21494;-42
2022/03/31 05:40:07;;;;;;;12.80;7.97;;;;;;;1.41;78.49;97982.86;1788973;80;20982;-41
2022/03/31 05:42:34;;;;;;;11.73;7.85;;;;;;;1.39;78.79;97980.33;1788619;80;20986;-42
2022/03/31 05:45:01;;;;;;;12.18;9.05;;;;;;;1.45;77.34;97983.95;1788780;80;21029;-41
2022/03/31 05:47:27;;;;;;;12.03;8.18;;;;;;;1.35;78.91;97981.36;1788794;80;21582;-42
2022/03/31 05:49:54;;;;;;;13.75;8.88;;;;;;;1.40;79.23;97984.61;1788681;80;21498;-43
2022/03/31 05:52:21;;;;;;;17.35;9.10;;;;;;;1.46;78.45;97989.55;1788678;80;20967;-40
2022/03/31 05:54:49;;;;;;;10.82;7.80;;;;;;;1.46;78.31;97986.95;1788830;80;20986;-41
2022/03/31 05:57:15;;;;;;;13.58;8.00;;;;;;;1.41;78.44;97985.45;1788763;80;20994;-41
2022/03/31 05:59:42;;;;;;;13.75;7.85;;;;;;;1.46;78.06;97986.12;1788995;80;21025;-43
2022/03/31 06:02:08;;;;;;;13.90;7.85;;;;;;;1.44;78.12;97981.45;1788212;80;20995;-43
2022/03/31 06:04:35;;;;;;;10.13;7.40;;;;;;;1.39;78.22;97979.03;1778835;80;20987;-43
2022/03/31 06:07:01;;;;;;;13.30;8.30;;;;;;;1.41;78.38;97984.16;1776556;80;21003;-43
2022/03/31 06:09:27;;;;;;;13.28;8.40;;;;;;;1.43;78.21;97981.87;1777355;80;21026;-43
2022/03/31 06:11:53;;;;;;;11.90;7.62;;;;;;;1.41;77.96;97983.69;1775722;80;20972;-43
2022/03/31 06:14:19;;;;;;;11.28;7.65;;;;;;;1.48;78.17;97991.62;1775708;80;21468;-41
2022/03/31 06:16:44;;;;;;;21.77;11.88;;;;;;;1.47;77.40;97986.49;1775500;81;21109;-42
2022/03/31 06:19:10;;;;;;;13.68;8.53;;;;;;;1.38;77.34;97979.92;1775611;81;21026;-42
2022/03/31 06:21:36;;;;;;;14.25;8.45;;;;;;;1.24;77.11;97973.16;1775419;81;21027;-41
2022/03/31 06:24:03;;;;;;;14.45;8.38;;;;;;;1.27;78.69;97969.97;1775529;81;21034;-42
2022/03/31 06:26:30;;;;;;;10.48;6.80;;;;;;;1.27;78.46;97975.16;1775614;81;20978;-40
2022/03/31 06:28:57;;;;;;;11.10;8.03;;;;;;;1.31;77.81;97976.74;1775458;81;21015;-42
2022/03/31 06:31:23;;;;;;;11.60;7.83;;;;;;;1.38;77.80;97984.27;1775799;80;21030;-43
2022/03/31 06:33:50;;;;;;;12.20;8.25;;;;;;;1.33;77.87;97981.87;1775612;80;20971;-42
2022/03/31 06:36:16;;;;;;;13.00;7.62;;;;;;;1.44;77.43;97981.45;1775775;81;21026;-40
2022/03/31 06:38:42;;;;;;;10.13;7.58;;;;;;;1.46;77.44;97983.52;1775580;81;21030;-42
2022/03/31 06:41:14;;;;;;;14.00;7.47;;;;;;;1.41;77.76;97982.86;1775571;81;20983;-43
2022/03/31 06:43:38;;;;;;;11.30;7.12;;;;;;;1.52;77.85;97982.81;1773844;80;21456;-42
2022/03/31 06:46:06;;;;;;;13.65;7.80;;;;;;;1.63;77.59;97991.45;1775573;81;20995;-41
2022/03/31 06:48:32;;;;;;;9.30;7.53;;;;;;;1.66;76.61;97990.05;1775660;81;21499;-43
2022/03/31 06:50:58;;;;;;;11.85;9.38;;;;;;;1.47;76.80;97995.09;1775439;81;20987;-43
2022/03/31 06:53:25;;;;;;;14.47;8.63;;;;;;;1.56;77.14;97996.95;1775736;81;20991;-41
2022/03/31 06:55:50;;;;;;;11.55;6.70;;;;;;;1.63;77.57;98000.98;1775461;80;20987;-42
2022/03/31 06:58:17;;;;;;;13.25;7.83;;;;;;;1.75;77.06;98000.94;1775635;81;21476;-40
2022/03/31 07:00:44;;;;;;;15.30;8.33;;;;;;;1.72;76.50;98001.91;1775564;80;21030;-41
2022/03/31 07:03:10;;;;;;;13.80;8.97;;;;;;;1.80;76.92;98002.46;1776654;81;21027;-42
2022/03/31 07:05:37;;;;;;;27.13;13.98;;;;;;;1.69;77.21;98006.78;1778464;81;21477;-41
2022/03/31 07:08:04;;;;;;;27.75;12.10;;;;;;;1.81;77.50;98014.50;1778646;81;20998;-44
2022/03/31 07:10:30;;;;;;;16.73;8.08;;;;;;;1.88;76.79;98016.41;1778624;81;21452;-45
2022/03/31 07:12:56;;;;;;;14.03;8.65;;;;;;;1.85;76.86;98016.05;1778403;81;20987;-42
2022/03/31 07:15:23;;;;;;;18.45;10.82;;;;;;;1.91;76.67;98017.13;1778481;80;21014;-42
2022/03/31 07:17:49;;;;;;;15.93;9.35;;;;;;;1.97;76.63;98015.19;1778682;81;20990;-44
2022/03/31 07:20:15;;;;;;;13.25;8.75;;;;;;;1.95;76.14;98011.79;1778448;81;21034;-41
2022/03/31 07:22:46;;;;;;;12.40;8.15;;;;;;;1.94;77.07;98011.41;1778435;81;21075;-43
2022/03/31 07:25:14;;;;;;;12.90;7.90;;;;;;;2.00;75.98;98008.56;1778414;81;21049;-42
2022/03/31 07:27:40;;;;;;;13.83;7.33;;;;;;;1.92;76.29;98012.31;1778548;81;20991;-42
2022/03/31 07:30:07;;;;;;;12.90;7.37;;;;;;;1.97;75.89;98010.84;1778384;81;20994;-43
2022/03/31 07:32:33;;;;;;;14.68;7.37;;;;;;;2.04;75.81;98017.92;1778584;81;20998;-44
2022/03/31 07:35:00;;;;;;;12.93;7.25;;;;;;;2.07;76.19;98022.96;1778583;81;21524;-40
2022/03/31 07:37:26;;;;;;;11.75;6.62;;;;;;;2.14;75.45;98025.69;1778679;81;21002;-42
2022/03/31 07:39:52;;;;;;;9.55;6.62;;;;;;;2.07;75.45;98029.45;1778414;81;20986;-43
2022/03/31 07:42:18;;;;;;;11.10;6.85;;;;;;;2.02;74.92;98031.38;1778417;81;20982;-43
2022/03/31 07:44:44;;;;;;;15.05;6.62;;;;;;;1.95;75.31;98020.44;1778565;81;20994;-43
2022/03/31 07:47:10;;;;;;;9.80;6.70;;;;;;;1.90;75.08;98015.42;1778569;80;20983;-42
2022/03/31 07:49:36;;;;;;;9.38;6.35;;;;;;;1.75;75.18;98007.41;1778656;81;20988;-42
2022/03/31 07:52:03;;;;;;;24.43;7.50;;;;;;;1.85;75.62;98008.28;1778550;81;21487;-42
2022/03/31 07:54:29;;;;;;;10.85;7.30;;;;;;;1.76;75.97;98012.54;1778902;81;20944;-47
2022/03/31 07:56:55;;;;;;;15.70;8.95;;;;;;;1.91;75.92;98019.72;1778627;81;20995;-42
2022/03/31 07:59:25;;;;;;;11.35;7.75;;;;;;;1.97;75.96;98013.44;1778544;81;20994;-43
2022/03/31 08:01:48;;;;;;;;;;;;;;;2.05;75.89;98010.05;1780525;81;21468;-41
2022/03/31 08:04:15;;;;;;;11.10;7.03;;;;;;;2.13;75.62;98009.76;1776414;81;20097;-41
2022/03/31 08:06:42;;;;;;;10.60;7.42;;;;;;;2.33;75.47;98002.87;1775656;81;20999;-41
2022/03/31 08:09:10;;;;;;;10.45;7.65;;;;;;;2.37;75.81;98001.39;1775802;81;20998;-43
2022/03/31 08:11:36;;;;;;;11.40;7.72;;;;;;;2.50;74.82;98011.63;1775501;81;21476;-43
2022/03/31 08:14:02;;;;;;;11.83;7.62;;;;;;;2.47;75.78;98013.50;1775662;81;21019;-42
2022/03/31 08:16:28;;;;;;;13.22;7.28;;;;;;;2.66;74.53;98022.19;1775531;81;20995;-42
2022/03/31 08:18:54;;;;;;;13.25;8.75;;;;;;;2.60;74.45;98025.06;1775566;81;20992;-45
2022/03/31 08:21:20;;;;;;;11.63;8.60;;;;;;;2.53;73.51;98031.42;1775475;81;21041;-42
2022/03/31 08:23:46;;;;;;;19.25;9.15;;;;;;;2.39;73.89;98036.36;1775579;81;21002;-43
2022/03/31 08:26:12;;;;;;;13.83;8.43;;;;;;;2.41;73.77;98029.34;1775669;81;21457;-41
2022/03/31 08:28:37;;;;;;;15.53;8.83;;;;;;;2.48;74.15;98020.39;1775538;81;20990;-43
2022/03/31 08:31:03;;;;;;;15.95;9.85;;;;;;;2.55;74.05;98021.81;1775564;81;20994;-42
2022/03/31 08:33:29;;;;;;;16.70;8.25;;;;;;;2.67;74.20;98014.80;1775525;81;21006;-42
2022/03/31 08:35:55;;;;;;;17.65;9.18;;;;;;;2.72;73.56;98025.43;1775504;80;20986;-41
2022/03/31 08:38:21;;;;;;;16.20;8.63;;;;;;;2.63;72.66;98030.09;1775077;81;21061;-42
2022/03/31 08:40:47;;;;;;;15.78;8.30;;;;;;;2.63;73.52;98028.80;1774478;80;21161;-43
2022/03/31 08:43:13;;;;;;;10.35;7.62;;;;;;;2.77;73.82;98036.47;1774398;81;21075;-42
2022/03/31 08:45:41;;;;;;;15.00;7.78;;;;;;;2.83;73.67;98038.31;1774399;81;21602;-43
2022/03/31 08:48:08;;;;;;;15.95;7.95;;;;;;;2.88;73.41;98032.47;1774280;80;21046;-43
2022/03/31 08:50:35;;;;;;;12.50;7.35;;;;;;;2.84;73.58;98039.18;1775582;80;21010;-42
2022/03/31 08:53:03;;;;;;;17.40;9.28;;;;;;;2.93;73.32;98033.58;1775606;81;21004;-43
2022/03/31 08:55:29;;;;;;;;;;;;;;;2.89;72.98;98030.70;1778230;81;21500;-47
2022/03/31 08:57:55;;;;;;;19.00;9.58;;;;;;;2.90;73.27;98041.49;1775549;80;20113;-43
2022/03/31 09:00:23;;;;;;;13.28;8.55;;;;;;;2.87;72.64;98041.63;1775547;80;20968;-43
2022/03/31 09:02:56;;;;;;;12.70;8.13;;;;;;;2.97;72.75;98038.18;1775449;81;20971;-41
2022/03/31 09:05:22;;;;;;;13.18;7.50;;;;;;;3.01;72.78;98044.91;1775515;81;21127;-45
2022/03/31 09:07:54;;;;;;;14.20;8.35;;;;;;;3.00;72.36;98047.98;1775521;81;21003;-40
2022/03/31 09:10:31;;;;;;;14.90;8.13;;;;;;;3.10;72.71;98044.97;1775326;80;20994;-43
2022/03/31 09:13:00;;;;;;;15.00;8.28;;;;;;;3.04;72.44;98052.11;1775509;81;21010;-42
2022/03/31 09:15:26;;;;;;;12.90;7.87;;;;;;;3.04;72.49;98045.62;1775511;81;21007;-42
2022/03/31 09:17:57;;;;;;;16.45;8.25;;;;;;;3.04;72.50;98046.92;1771100;80;21002;-42
2022/03/31 09:20:36;;;;;;;20.30;8.13;;;;;;;3.07;72.88;98039.00;1750656;81;21358;-42
2022/03/31 09:23:03;;;;;;;10.03;6.70;;;;;;;3.20;72.79;98044.92;1771765;80;21043;-43
2022/03/31 09:25:32;;;;;;;14.70;8.30;;;;;;;3.20;72.26;98050.98;1784064;80;21057;-45
2022/03/31 09:28:00;;;;;;;19.52;8.93;;;;;;;3.26;72.36;98048.55;1782824;80;21082;-44
2022/03/31 09:30:25;;;;;;;16.90;8.13;;;;;;;3.40;71.58;98050.06;1783127;80;21019;-42
2022/03/31 09:32:52;;;;;;;14.25;8.50;;;;;;;3.46;71.81;98043.27;1783259;80;20999;-43
2022/03/31 09:35:24;;;;;;;10.93;7.08;;;;;;;3.55;71.32;98047.67;1783280;80;21433;-42
2022/03/31 09:37:55;;;;;;;14.85;8.33;;;;;;;3.63;71.18;98046.38;1781649;80;21078;-45
2022/03/31 09:40:21;;;;;;;13.98;8.58;;;;;;;3.68;71.74;98045.34;1781610;80;22295;-44
2022/03/31 09:42:58;;;;;;;16.03;8.80;;;;;;;3.82;71.70;98048.09;1782269;80;21535;-43
2022/03/31 09:45:27;;;;;;;13.60;9.08;;;;;;;3.94;70.69;98043.62;1783289;80;20979;-43
2022/03/31 09:47:53;;;;;;;14.20;8.60;;;;;;;3.97;71.11;98046.55;1781919;80;21003;-42
2022/03/31 09:50:20;;;;;;;16.05;9.20;;;;;;;4.05;70.64;98040.50;1783118;80;21437;-44
2022/03/31 09:52:47;;;;;;;14.67;8.93;;;;;;;4.13;70.91;98046.18;1782735;80;20987;-45
2022/03/31 09:55:14;;;;;;;13.70;7.47;;;;;;;4.21;70.53;98042.73;1783282;80;21495;-44
2022/03/31 09:57:40;;;;;;;11.08;7.15;;;;;;;4.26;70.03;98033.41;1773374;80;20979;-43
2022/03/31 10:00:08;;;;;;;15.72;7.62;;;;;;;4.24;69.91;98031.34;1745565;81;21030;-43
2022/03/31 10:02:37;;;;;;;;;;;;;;;4.42;69.69;98028.25;1765022;80;21003;-43
2022/03/31 10:05:04;;;;;;;15.70;8.03;;;;;;;4.49;70.09;98030.92;1773733;80;20254;-42
2022/03/31 10:07:30;;;;;;;12.53;7.42;;;;;;;4.66;69.63;98035.30;1767236;80;20975;-42
2022/03/31 10:09:56;;;;;;;15.45;6.95;;;;;;;4.68;68.77;98048.24;1759964;80;21014;-43
2022/03/31 10:12:46;;;;;;;22.60;8.73;;;;;;;4.77;69.26;98054.28;1757153;81;21452;-44
2022/03/31 10:15:31;;;;;;;10.82;7.42;;;;;;;4.86;69.07;98049.03;1757430;81;21574;-43
2022/03/31 10:17:57;;;;;;;17.17;7.97;;;;;;;4.88;68.49;98044.61;1756221;81;20995;-43
2022/03/31 10:20:24;;;;;;;22.30;8.98;;;;;;;4.96;68.82;98046.33;1756925;81;20979;-43
2022/03/31 10:25:45;;;;;;;19.30;9.33;;;;;;;4.97;68.78;98033.23;1757106;82;21099;-43
2022/03/31 10:28:20;;;;;;;25.12;9.50;;;;;;;5.12;68.11;98032.88;1757087;81;21015;-44
2022/03/31 10:30:59;;;;;;;15.60;7.45;;;;;;;5.21;68.37;98041.97;1757640;81;20960;-43
2022/03/31 10:33:38;;;;;;;14.78;7.60;;;;;;;5.19;67.19;98036.84;1784998;80;21000;-44
2022/03/31 10:36:15;;;;;;;11.55;7.03;;;;;;;5.18;67.22;98029.96;1788109;80;21572;-43
2022/03/31 10:39:01;;;;;;;12.53;7.95;;;;;;;5.27;67.42;98036.89;1762243;80;21079;-46
2022/03/31 10:41:39;;;;;;;13.32;7.87;;;;;;;5.24;66.75;98035.74;1757483;81;21081;-42
2022/03/31 10:44:16;;;;;;;11.05;6.40;;;;;;;5.27;67.26;98033.81;1756208;82;21062;-42
2022/03/31 10:46:46;;;;;;;11.80;7.10;;;;;;;5.32;66.32;98024.45;1767757;80;21048;-45
2022/03/31 10:49:20;;;;;;;14.87;6.97;;;;;;;5.31;66.18;98019.72;1782320;80;21015;-43
2022/03/31 10:51:48;;;;;;;14.03;6.62;;;;;;;5.34;66.05;98018.22;1773866;80;21015;-45
2022/03/31 10:54:33;;;;;;;10.30;6.35;;;;;;;5.37;65.66;98016.77;1771581;81;21042;-44
2022/03/31 10:57:10;;;;;;;12.82;6.40;;;;;;;5.45;65.74;98019.41;1772536;81;21043;-44
2022/03/31 10:59:39;;;;;;;13.08;7.50;;;;;;;5.41;65.46;98023.12;1772943;81;21039;-44
2022/03/31 11:02:21;;;;;;;17.42;6.92;;;;;;;5.44;65.54;98019.89;1772729;81;21102;-44
2022/03/31 11:04:56;;;;;;;19.10;10.13;;;;;;;5.55;65.74;98013.61;1770711;80;21592;-43
2022/03/31 11:07:26;;;;;;;17.02;9.33;;;;;;;5.49;64.98;98015.23;1769809;81;21079;-43
2022/03/31 11:10:13;;;;;;;18.40;10.70;;;;;;;5.47;65.13;98018.39;1769055;81;21606;-43
2022/03/31 11:12:41;;;;;;;14.03;8.68;;;;;;;5.61;66.05;98016.34;1769682;81;21043;-45
2022/03/31 11:15:12;;;;;;;16.65;9.38;;;;;;;5.77;65.56;98021.08;1769818;80;21096;-43
2022/03/31 11:17:40;;;;;;;25.62;9.60;;;;;;;5.81;64.98;98015.70;1772605;81;21482;-43
2022/03/31 11:20:19;;;;;;;19.10;9.88;;;;;;;5.76;64.58;98019.37;1774728;80;21023;-42
2022/03/31 11:22:51;;;;;;;15.75;8.18;;;;;;;5.82;65.00;98014.75;1775209;81;21324;-44
2022/03/31 11:25:19;;;;;;;12.43;8.65;;;;;;;5.84;65.41;98016.80;1775571;80;21477;-43
2022/03/31 11:27:49;;;;;;;15.13;7.12;;;;;;;5.81;63.64;98010.00;1775481;81;20959;-43
2022/03/31 11:30:18;;;;;;;12.43;7.70;;;;;;;5.79;64.28;98010.56;1775413;81;21018;-43
2022/03/31 11:32:45;;;;;;;15.08;8.18;;;;;;;5.82;64.74;98014.75;1775562;80;20975;-43
2022/03/31 11:35:17;;;;;;;15.60;7.33;;;;;;;5.84;63.92;98004.63;1775710;80;20963;-44
2022/03/31 11:37:53;;;;;;;12.65;7.25;;;;;;;5.86;63.68;98003.23;1775475;80;21676;-43
2022/03/31 11:40:33;;;;;;;12.23;7.58;;;;;;;5.75;63.54;98005.98;1775449;81;21014;-43
2022/03/31 11:43:03;;;;;;;11.15;7.22;;;;;;;5.82;63.70;98003.02;1775501;81;21523;-43
2022/03/31 11:45:43;;;;;;;18.10;8.65;;;;;;;5.84;63.67;97995.94;1775446;81;21011;-43